Time;durP1;ratioP1;P1;durP2;ratioP2;P2;SDS_P1;SDS_P2;PMS_P1;PMS_P2;Temp;Humidity;BMP_temperature;BMP_pressure;BME280_temperature;BME280_humidity;BME280_pressure;Samples;Min_cycle;Max_cycle;Signal;HPM_P1;HPM_P2
2021/09/16 00:00:16;;;;;;;;;;;10.20;68.40;;;;;;5075364;28;19932;-74
2021/09/16 00:02:42;;;;;;;;;;;10.20;69.10;;;;;;5075475;28;19916;-74
2021/09/16 00:05:09;;;;;;;;;;;10.20;69.70;;;;;;5075286;28;19985;-74
2021/09/16 00:07:34;;;;;;;;;;;10.20;69.30;;;;;;5075258;28;20054;-74
2021/09/16 00:10:00;;;;;;;;;;;10.20;69.60;;;;;;5074154;28;19951;-74
2021/09/16 00:12:26;;;;;;;;;;;10.20;69.60;;;;;;5075269;28;20349;-74
2021/09/16 00:14:51;;;;;;;;;;;10.20;70.10;;;;;;5075154;28;20006;-74
2021/09/16 00:17:17;;;;;;;;;;;10.10;69.30;;;;;;5074981;28;20007;-74
2021/09/16 00:19:43;;;;;;;;;;;10.10;69.70;;;;;;5074946;28;19979;-74
2021/09/16 00:22:08;;;;;;;;;;;10.10;69.20;;;;;;5073597;28;19919;-74
2021/09/16 00:24:34;;;;;;;;;;;10.10;69.60;;;;;;5074866;28;19912;-74
2021/09/16 00:26:59;;;;;;;;;;;10.10;69.60;;;;;;5074895;28;20288;-74
2021/09/16 00:29:25;;;;;;;;;;;10.10;69.50;;;;;;5074656;28;19920;-74
2021/09/16 00:31:50;;;;;;;;;;;10.10;69.90;;;;;;5074595;28;19912;-74
2021/09/16 00:34:16;;;;;;;;;;;10.00;70.10;;;;;;5074668;28;20393;-74
2021/09/16 00:36:41;;;;;;;;;;;10.00;70.60;;;;;;5074481;28;20007;-74
2021/09/16 00:39:07;;;;;;;;;;;10.00;70.90;;;;;;5074575;28;19958;-74
2021/09/16 00:41:32;;;;;;;;;;;10.00;71.00;;;;;;5074567;28;19909;-74
2021/09/16 00:43:58;;;;;;;;;;;10.00;70.70;;;;;;5074882;28;20009;-74
2021/09/16 00:46:24;;;;;;;;;;;9.90;70.20;;;;;;5074449;28;19919;-74
2021/09/16 00:48:49;;;;;;;;;;;9.90;70.70;;;;;;5076354;28;20261;-74
2021/09/16 00:51:15;;;;;;;;;;;9.90;70.50;;;;;;5074343;28;20331;-74
2021/09/16 00:53:40;;;;;;;;;;;9.90;70.70;;;;;;5073990;28;19920;-74
2021/09/16 00:56:07;;;;;;;;;;;9.90;70.60;;;;;;5074275;28;20292;-74
2021/09/16 00:58:37;;;;;;;;;;;9.80;70.60;;;;;;5073034;28;19917;-74
2021/09/16 01:01:02;;;;;;;;;;;9.80;70.90;;;;;;5074191;28;20384;-74
2021/09/16 01:03:28;;;;;;;;;;;9.80;70.90;;;;;;5074543;28;19916;-74
2021/09/16 01:05:53;;;;;;;;;;;9.80;71.10;;;;;;5074049;28;19920;-74
2021/09/16 01:08:19;;;;;;;;;;;9.80;71.70;;;;;;5074232;28;19931;-74
2021/09/16 01:10:45;;;;;;;;;;;9.80;71.60;;;;;;5074044;28;19908;-74
2021/09/16 01:13:11;;;;;;;;;;;9.70;71.70;;;;;;5074187;28;19921;-74
2021/09/16 01:15:37;;;;;;;;;;;9.70;70.60;;;;;;5072557;28;19913;-74
2021/09/16 01:18:03;;;;;;;;;;;9.70;71.00;;;;;;5072760;28;20377;-74
2021/09/16 01:20:28;;;;;;;;;;;9.70;71.80;;;;;;5073901;28;20274;-74
2021/09/16 01:22:54;;;;;;;;;;;9.70;71.40;;;;;;5073978;28;19919;-74
2021/09/16 01:25:23;;;;;;;;;;;9.70;71.20;;;;;;5073831;28;19912;-74
2021/09/16 01:27:49;;;;;;;;;;;9.70;71.40;;;;;;5073822;28;19942;-74
2021/09/16 01:30:14;;;;;;;;;;;9.70;71.60;;;;;;5073766;28;20381;-74
2021/09/16 01:32:40;;;;;;;;;;;9.60;71.80;;;;;;5072445;28;19916;-74
2021/09/16 01:35:06;;;;;;;;;;;9.60;71.50;;;;;;5073825;28;20276;-74
2021/09/16 01:37:31;;;;;;;;;;;9.60;72.50;;;;;;5073631;28;19913;-74
2021/09/16 01:39:57;;;;;;;;;;;9.60;72.50;;;;;;5073641;28;19912;-74
2021/09/16 01:42:22;;;;;;;;;;;9.60;71.70;;;;;;5073755;28;19919;-74
2021/09/16 01:44:48;;;;;;;;;;;9.60;70.70;;;;;;5073578;28;19919;-74
2021/09/16 01:47:14;;;;;;;;;;;9.60;71.60;;;;;;5074843;28;19913;-74
2021/09/16 01:49:39;;;;;;;;;;;9.60;71.60;;;;;;5074040;28;19973;-74
2021/09/16 01:52:05;;;;;;;;;;;9.50;71.60;;;;;;5073579;28;19916;-74
2021/09/16 01:54:31;;;;;;;;;;;9.50;71.90;;;;;;5073502;28;19944;-74
2021/09/16 01:56:56;;;;;;;;;;;9.50;71.80;;;;;;5073403;28;19928;-74
2021/09/16 01:59:22;;;;;;;;;;;9.50;71.90;;;;;;5073372;28;19908;-74
2021/09/16 02:01:47;;;;;;;;;;;9.40;71.70;;;;;;5073320;28;19912;-74
2021/09/16 02:04:13;;;;;;;;;;;9.40;71.80;;;;;;5074450;28;19934;-74
2021/09/16 02:06:38;;;;;;;;;;;9.40;72.30;;;;;;5077431;28;19962;-74
2021/09/16 02:09:04;;;;;;;;;;;9.40;71.60;;;;;;5077353;28;20320;-74
2021/09/16 02:11:29;;;;;;;;;;;9.30;71.70;;;;;;5077487;28;19915;-74
2021/09/16 02:13:55;;;;;;;;;;;9.30;72.40;;;;;;5076246;28;19916;-74
2021/09/16 02:16:20;;;;;;;;;;;9.30;73.00;;;;;;5075926;28;20361;-74
2021/09/16 02:18:46;;;;;;;;;;;9.30;73.10;;;;;;5077701;28;19916;-74
2021/09/16 02:21:11;;;;;;;;;;;9.30;72.10;;;;;;5077223;28;19909;-74
2021/09/16 02:23:37;;;;;;;;;;;9.30;71.70;;;;;;5077034;28;19916;-74
2021/09/16 02:26:02;;;;;;;;;;;9.20;71.90;;;;;;5077251;28;20392;-74
2021/09/16 02:28:28;;;;;;;;;;;9.20;73.20;;;;;;5077421;28;20288;-74
2021/09/16 02:30:54;;;;;;;;;;;9.20;72.10;;;;;;5077014;28;19966;-74
2021/09/16 02:33:19;;;;;;;;;;;9.20;72.80;;;;;;5077361;28;19924;-74
2021/09/16 02:35:51;;;;;;;;;;;9.20;73.40;;;;;;5076912;28;19908;-74
2021/09/16 02:38:17;;;;;;;;;;;9.10;72.90;;;;;;5077308;28;20326;-74
2021/09/16 02:40:43;;;;;;;;;;;9.10;73.10;;;;;;5076917;28;19958;-74
2021/09/16 02:43:08;;;;;;;;;;;9.10;73.50;;;;;;5077047;28;20328;-74
2021/09/16 02:45:34;;;;;;;;;;;9.10;73.50;;;;;;5076710;28;19916;-74
2021/09/16 02:47:59;;;;;;;;;;;9.10;73.40;;;;;;5089656;22;19931;-78
2021/09/16 02:50:24;;;;;;;;;;;9.10;73.10;;;;;;5084510;28;19916;-79
2021/09/16 02:52:50;;;;;;;;;;;9.00;73.40;;;;;;5085605;28;20285;-79
2021/09/16 02:55:18;;;;;;;;;;;9.00;71.50;;;;;;5081140;28;19913;-79
2021/09/16 02:57:45;;;;;;;;;;;9.00;72.70;;;;;;5076124;28;19920;-78
2021/09/16 03:00:11;;;;;;;;;;;9.00;72.10;;;;;;5076080;28;20383;-78
2021/09/16 03:02:36;;;;;;;;;;;9.00;72.40;;;;;;5076540;28;20016;-78
2021/09/16 03:05:02;;;;;;;;;;;8.90;73.40;;;;;;5076833;28;20258;-78
2021/09/16 03:07:28;;;;;;;;;;;8.90;74.00;;;;;;5077781;28;20316;-78
2021/09/16 03:09:53;;;;;;;;;;;8.90;74.20;;;;;;5077363;28;19923;-78
2021/09/16 03:12:19;;;;;;;;;;;8.90;73.70;;;;;;5077476;28;20329;-78
2021/09/16 03:14:44;;;;;;;;;;;8.90;75.00;;;;;;5076199;28;20384;-78
2021/09/16 03:17:10;;;;;;;;;;;8.90;74.30;;;;;;5076644;28;19974;-78
2021/09/16 03:19:35;;;;;;;;;;;8.90;73.00;;;;;;5077666;28;19999;-78
2021/09/16 03:22:01;;;;;;;;;;;9.00;74.30;;;;;;5077507;28;20337;-78
2021/09/16 03:24:26;;;;;;;;;;;9.10;75.00;;;;;;5075905;28;19916;-78
2021/09/16 03:26:53;;;;;;;;;;;9.10;74.70;;;;;;5075807;28;19908;-78
2021/09/16 03:29:18;;;;;;;;;;;9.30;74.80;;;;;;5075867;28;20270;-78
2021/09/16 03:31:44;;;;;;;;;;;9.40;74.20;;;;;;5077566;28;19915;-78
2021/09/16 03:34:09;;;;;;;;;;;9.50;75.00;;;;;;5078124;28;20006;-78
2021/09/16 03:36:35;;;;;;;;;;;9.60;74.50;;;;;;5078432;28;19908;-79
2021/09/16 03:39:01;;;;;;;;;;;9.80;74.10;;;;;;5076789;28;19912;-78
2021/09/16 03:41:26;;;;;;;;;;;9.90;72.00;;;;;;5077379;28;19919;-79
2021/09/16 03:43:52;;;;;;;;;;;10.00;73.10;;;;;;5078892;28;20342;-79
2021/09/16 03:46:17;;;;;;;;;;;10.20;73.30;;;;;;5077252;28;20428;-78
2021/09/16 03:48:43;;;;;;;;;;;10.30;70.80;;;;;;5079564;28;19971;-78
2021/09/16 03:51:08;;;;;;;;;;;10.40;70.50;;;;;;5078393;28;20377;-79
2021/09/16 03:53:34;;;;;;;;;;;10.50;72.00;;;;;;5077606;28;20380;-80
2021/09/16 03:55:59;;;;;;;;;;;10.60;69.80;;;;;;5077055;28;19931;-79
2021/09/16 03:58:26;;;;;;;;;;;10.60;70.30;;;;;;5076758;28;19939;-78
2021/09/16 04:00:51;;;;;;;;;;;10.70;71.60;;;;;;5078171;28;19974;-79
2021/09/16 04:03:17;;;;;;;;;;;10.80;71.00;;;;;;5086896;28;19963;-79
2021/09/16 04:05:42;;;;;;;;;;;10.90;70.90;;;;;;5084077;28;19916;-79
2021/09/16 04:08:08;;;;;;;;;;;11.10;70.70;;;;;;5083572;28;19924;-78
2021/09/16 04:10:33;;;;;;;;;;;11.20;71.40;;;;;;5084874;28;19908;-79
2021/09/16 04:12:59;;;;;;;;;;;11.30;70.20;;;;;;5080721;28;19923;-80
2021/09/16 04:15:24;;;;;;;;;;;11.30;70.50;;;;;;5077546;28;19915;-79
2021/09/16 04:17:50;;;;;;;;;;;11.50;71.20;;;;;;5076788;28;19924;-78
2021/09/16 04:20:15;;;;;;;;;;;11.60;70.50;;;;;;5075895;28;19909;-79
2021/09/16 04:22:41;;;;;;;;;;;11.70;70.00;;;;;;5079065;28;19917;-79
2021/09/16 04:25:07;;;;;;;;;;;11.80;69.10;;;;;;5077516;28;20266;-79
2021/09/16 04:27:32;;;;;;;;;;;11.90;69.50;;;;;;5076650;28;19924;-78
2021/09/16 04:29:58;;;;;;;;;;;12.00;70.10;;;;;;5077273;28;19909;-78
2021/09/16 04:32:23;;;;;;;;;;;12.10;67.90;;;;;;5077694;28;19931;-78
2021/09/16 04:34:49;;;;;;;;;;;12.20;68.80;;;;;;5077572;28;19909;-79
2021/09/16 04:37:15;;;;;;;;;;;12.30;68.70;;;;;;5076316;28;20362;-79
2021/09/16 04:39:40;;;;;;;;;;;12.30;68.70;;;;;;5077418;28;19908;-79
2021/09/16 04:42:08;;;;;;;;;;;12.40;69.10;;;;;;5077793;28;19970;-81
2021/09/16 04:44:34;;;;;;;;;;;12.50;69.10;;;;;;5076503;28;19914;-80
2021/09/16 04:46:59;;;;;;;;;;;12.60;69.70;;;;;;5077959;28;19939;-79
2021/09/16 04:49:27;;;;;;;;;;;12.70;70.00;;;;;;5079581;28;19920;-80
2021/09/16 04:51:53;;;;;;;;;;;12.80;69.40;;;;;;5077549;28;19908;-79
2021/09/16 04:54:18;;;;;;;;;;;12.90;67.50;;;;;;5076520;28;20000;-79
2021/09/16 04:56:44;;;;;;;;;;;13.00;67.70;;;;;;5079293;28;19995;-80
2021/09/16 04:59:09;;;;;;;;;;;13.10;68.10;;;;;;5077228;28;20480;-79
2021/09/16 05:01:35;;;;;;;;;;;13.30;70.00;;;;;;5078109;28;19909;-80
2021/09/16 05:04:00;;;;;;;;;;;13.50;68.20;;;;;;5078911;28;19976;-80
2021/09/16 05:06:26;;;;;;;;;;;13.60;68.30;;;;;;5081728;28;19909;-80
2021/09/16 05:08:51;;;;;;;;;;;13.70;68.00;;;;;;5077342;28;19995;-80
2021/09/16 05:11:17;;;;;;;;;;;13.90;66.90;;;;;;5078028;28;19912;-80
2021/09/16 05:13:43;;;;;;;;;;;14.00;67.00;;;;;;5078535;28;19967;-80
2021/09/16 05:16:08;;;;;;;;;;;14.10;66.00;;;;;;5077746;28;19947;-80
2021/09/16 05:18:37;;;;;;;;;;;14.30;65.90;;;;;;5073391;28;20097;-79
2021/09/16 05:21:05;;;;;;;;;;;14.60;67.50;;;;;;5075410;28;19917;-78
2021/09/16 05:23:31;;;;;;;;;;;15.40;66.60;;;;;;5070321;28;20302;-78
2021/09/16 05:25:57;;;;;;;;;;;16.20;65.70;;;;;;5069634;28;19921;-80
2021/09/16 05:28:24;;;;;;;;;;;17.20;64.60;;;;;;5067043;28;19917;-78
2021/09/16 05:30:50;;;;;;;;;;;18.10;63.20;;;;;;5067356;28;19920;-79
2021/09/16 05:33:16;;;;;;;;;;;18.80;61.80;;;;;;5066760;28;19962;-78
2021/09/16 05:35:41;;;;;;;;;;;19.60;60.60;;;;;;5065834;28;19982;-78
2021/09/16 05:38:07;;;;;;;;;;;20.20;59.70;;;;;;5071970;28;19948;-79
2021/09/16 05:40:33;;;;;;;;;;;20.70;58.50;;;;;;5070185;28;19923;-81
2021/09/16 05:42:59;;;;;;;;;;;21.00;55.40;;;;;;5071988;28;20483;-78
2021/09/16 05:45:24;;;;;;;;;;;21.40;56.70;;;;;;5073875;28;19948;-79
2021/09/16 05:47:50;;;;;;;;;;;21.70;56.00;;;;;;5078883;28;19892;-82
2021/09/16 05:50:17;;;;;;;;;;;22.10;56.40;;;;;;5078975;28;22305;-85
2021/09/16 05:52:43;;;;;;;;;;;22.50;56.00;;;;;;5077231;28;19908;-81
2021/09/16 05:55:10;;;;;;;;;;;22.80;55.40;;;;;;5074734;28;19917;-83
2021/09/16 05:57:35;;;;;;;;;;;23.30;54.00;;;;;;5073385;28;19962;-83
2021/09/16 06:00:01;;;;;;;;;;;23.70;53.90;;;;;;5072231;28;19916;-83
2021/09/16 06:02:27;;;;;;;;;;;24.10;52.70;;;;;;5069111;28;19913;-76
2021/09/16 06:04:53;;;;;;;;;;;24.40;52.40;;;;;;5074039;28;19923;-79
2021/09/16 06:07:18;;;;;;;;;;;24.70;51.00;;;;;;5070779;28;19912;-78
2021/09/16 06:09:44;;;;;;;;;;;25.30;49.50;;;;;;5071581;28;20007;-78
2021/09/16 06:12:10;;;;;;;;;;;25.90;50.70;;;;;;5069937;28;20369;-81
2021/09/16 06:14:36;;;;;;;;;;;26.40;47.30;;;;;;5053653;28;19913;-77
2021/09/16 06:17:03;;;;;;;;;;;27.30;44.60;;;;;;5069934;28;20408;-80
2021/09/16 06:19:29;;;;;;;;;;;28.00;46.20;;;;;;5069525;28;19913;-78
2021/09/16 06:21:55;;;;;;;;;;;28.50;44.40;;;;;;5072093;28;19981;-79
2021/09/16 06:24:21;;;;;;;;;;;28.70;43.60;;;;;;5066710;28;19935;-79
2021/09/16 06:26:46;;;;;;;;;;;29.20;46.90;;;;;;5065968;28;19912;-80
2021/09/16 06:29:12;;;;;;;;;;;29.60;41.80;;;;;;5069832;28;20027;-83
2021/09/16 06:31:38;;;;;;;;;;;29.90;41.40;;;;;;5069530;28;19920;-82
2021/09/16 06:34:03;;;;;;;;;;;29.80;44.70;;;;;;5072271;28;19913;-81
2021/09/16 06:36:29;;;;;;;;;;;29.70;44.40;;;;;;5074416;28;20270;-81
2021/09/16 06:38:54;;;;;;;;;;;29.70;43.60;;;;;;5065268;28;19916;-78
2021/09/16 06:41:20;;;;;;;;;;;29.70;42.00;;;;;;5065009;28;19913;-78
2021/09/16 06:43:46;;;;;;;;;;;29.70;42.50;;;;;;5066623;28;19958;-81
2021/09/16 06:46:12;;;;;;;;;;;29.50;44.10;;;;;;5069044;28;19913;-80
2021/09/16 06:48:38;;;;;;;;;;;29.00;45.70;;;;;;5073549;23;19934;-73
2021/09/16 06:51:04;;;;;;;;;;;28.30;43.60;;;;;;5066809;28;19932;-73
2021/09/16 06:53:29;;;;;;;;;;;27.80;44.00;;;;;;5072666;28;19924;-74
2021/09/16 06:55:55;;;;;;;;;;;27.70;44.90;;;;;;5075619;28;19938;-73
2021/09/16 06:58:20;;;;;;;;;;;28.00;42.70;;;;;;5075539;28;20221;-73
2021/09/16 07:00:46;;;;;;;;;;;28.10;43.00;;;;;;5073706;28;20262;-74
2021/09/16 07:03:11;;;;;;;;;;;28.60;43.40;;;;;;5075593;28;20003;-74
2021/09/16 07:05:37;;;;;;;;;;;29.30;42.20;;;;;;5074103;28;19952;-73
2021/09/16 07:08:03;;;;;;;;;;;29.80;41.30;;;;;;5073715;28;19958;-72
2021/09/16 07:10:28;;;;;;;;;;;30.00;40.30;;;;;;5075421;28;19908;-72
2021/09/16 07:12:55;;;;;;;;;;;30.40;37.60;;;;;;5074594;28;19912;-73
2021/09/16 07:15:22;;;;;;;;;;;30.70;40.40;;;;;;5073470;28;19995;-73
2021/09/16 07:17:47;;;;;;;;;;;30.90;38.10;;;;;;5071395;28;19990;-74
2021/09/16 07:20:13;;;;;;;;;;;31.10;39.50;;;;;;5070066;28;19917;-74
2021/09/16 07:22:39;;;;;;;;;;;30.70;38.40;;;;;;5069629;28;19908;-74
2021/09/16 07:25:05;;;;;;;;;;;30.30;37.40;;;;;;5071712;28;19908;-73
2021/09/16 07:27:31;;;;;;;;;;;29.70;36.30;;;;;;5070887;28;20045;-75
2021/09/16 07:29:57;;;;;;;;;;;29.10;37.70;;;;;;5072471;28;19928;-72
2021/09/16 07:32:22;;;;;;;;;;;28.70;39.40;;;;;;5072397;28;19912;-71
2021/09/16 07:34:48;;;;;;;;;;;28.30;39.10;;;;;;5072376;28;19921;-73
2021/09/16 07:37:13;;;;;;;;;;;27.70;38.60;;;;;;5072574;28;19915;-73
2021/09/16 07:39:39;;;;;;;;;;;27.30;42.60;;;;;;5071511;28;20431;-72
2021/09/16 07:42:04;;;;;;;;;;;27.20;39.80;;;;;;5070960;28;19919;-73
2021/09/16 07:44:30;;;;;;;;;;;27.10;38.90;;;;;;5069339;28;19920;-73
2021/09/16 07:46:55;;;;;;;;;;;27.10;40.60;;;;;;5072091;28;19954;-73
2021/09/16 07:49:21;;;;;;;;;;;27.30;40.70;;;;;;5072387;23;20052;-78
2021/09/16 07:51:46;;;;;;;;;;;27.80;38.60;;;;;;5072493;28;19943;-78
2021/09/16 07:54:12;;;;;;;;;;;28.10;38.50;;;;;;5074289;28;20065;-77
2021/09/16 07:56:41;;;;;;;;;;;28.30;37.10;;;;;;5072177;28;19908;-78
2021/09/16 07:59:07;;;;;;;;;;;28.60;37.30;;;;;;5075232;28;19923;-76
2021/09/16 08:01:32;;;;;;;;;;;29.00;36.80;;;;;;5073718;28;19910;-77
2021/09/16 08:03:58;;;;;;;;;;;29.40;35.80;;;;;;5074906;28;19946;-77
2021/09/16 08:06:23;;;;;;;;;;;29.80;36.80;;;;;;5073973;28;19909;-77
2021/09/16 08:08:49;;;;;;;;;;;30.10;35.90;;;;;;5073185;28;19924;-78
2021/09/16 08:11:14;;;;;;;;;;;30.80;37.60;;;;;;5074062;28;19913;-80
2021/09/16 08:13:40;;;;;;;;;;;31.60;34.20;;;;;;5073476;28;19916;-79
2021/09/16 08:16:06;;;;;;;;;;;32.30;38.00;;;;;;5074534;28;20190;-79
2021/09/16 08:18:34;;;;;;;;;;;33.20;38.60;;;;;;5080801;28;20296;-80
2021/09/16 08:21:00;;;;;;;;;;;34.20;34.50;;;;;;5081469;28;19912;-79
2021/09/16 08:23:25;;;;;;;;;;;35.30;34.60;;;;;;5076376;28;19917;-78
2021/09/16 08:25:51;;;;;;;;;;;35.80;35.00;;;;;;5075336;28;19954;-79
2021/09/16 08:28:17;;;;;;;;;;;36.00;34.30;;;;;;5072081;28;19954;-78
2021/09/16 08:30:43;;;;;;;;;;;36.30;34.10;;;;;;5071911;28;19936;-78
2021/09/16 08:33:08;;;;;;;;;;;36.60;34.90;;;;;;5071850;28;20006;-79
2021/09/16 08:35:34;;;;;;;;;;;36.70;34.00;;;;;;5070560;28;19925;-78
2021/09/16 08:38:00;;;;;;;;;;;36.90;32.00;;;;;;5068788;28;20605;-77
2021/09/16 08:40:26;;;;;;;;;;;37.20;34.40;;;;;;5068423;28;19916;-75
2021/09/16 08:42:52;;;;;;;;;;;37.40;35.10;;;;;;5067028;28;19919;-78
2021/09/16 08:45:19;;;;;;;;;;;37.40;36.00;;;;;;5070436;28;20457;-77
2021/09/16 08:47:45;;;;;;;;;;;37.90;32.50;;;;;;5070530;28;20544;-80
2021/09/16 08:50:13;;;;;;;;;;;38.10;34.70;;;;;;5086351;22;19932;-82
2021/09/16 08:52:42;;;;;;;;;;;38.10;34.30;;;;;;5075985;28;20152;-75
2021/09/16 08:55:08;;;;;;;;;;;37.90;32.20;;;;;;5072364;28;20472;-79
2021/09/16 08:57:36;;;;;;;;;;;38.10;33.00;;;;;;5074490;28;20275;-79
2021/09/16 09:00:04;;;;;;;;;;;38.50;34.10;;;;;;5074380;28;19916;-80
2021/09/16 09:02:29;;;;;;;;;;;38.90;34.20;;;;;;5072901;28;20320;-78
2021/09/16 09:04:55;;;;;;;;;;;39.10;32.70;;;;;;5072035;28;19916;-78
2021/09/16 09:07:20;;;;;;;;;;;39.10;32.20;;;;;;5074579;28;20269;-78
2021/09/16 09:09:46;;;;;;;;;;;39.10;30.90;;;;;;5069978;28;19920;-76
2021/09/16 09:12:13;;;;;;;;;;;39.50;31.90;;;;;;5070542;28;20022;-79
2021/09/16 09:14:43;;;;;;;;;;;39.70;30.10;;;;;;5067965;28;19912;-80
2021/09/16 09:17:19;;;;;;;;;;;39.80;29.40;;;;;;5071869;28;20362;-80
2021/09/16 09:19:46;;;;;;;;;;;39.70;31.00;;;;;;5051670;28;19912;-78
2021/09/16 09:22:12;;;;;;;;;;;40.00;29.50;;;;;;5067800;28;20003;-80
2021/09/16 09:24:41;;;;;;;;;;;40.30;31.10;;;;;;5066166;28;20300;-79
2021/09/16 09:27:21;;;;;;;;;;;40.50;30.40;;;;;;5069244;28;19955;-77
2021/09/16 09:30:03;;;;;;;;;;;40.70;30.90;;;;;;5068224;28;19948;-78
2021/09/16 09:32:48;;;;;;;;;;;40.90;30.40;;;;;;5072285;28;19915;-80
2021/09/16 09:35:24;;;;;;;;;;;41.20;30.90;;;;;;5069969;28;19917;-77
2021/09/16 09:37:50;;;;;;;;;;;41.30;29.40;;;;;;5076107;28;19908;-77
2021/09/16 09:40:23;;;;;;;;;;;41.60;30.20;;;;;;5073186;28;19923;-77
2021/09/16 09:42:49;;;;;;;;;;;41.60;30.10;;;;;;5072003;28;20320;-77
2021/09/16 09:45:14;;;;;;;;;;;41.70;30.00;;;;;;5074293;28;19912;-79
2021/09/16 09:47:41;;;;;;;;;;;41.30;28.90;;;;;;5076800;28;20417;-80
2021/09/16 09:50:36;;;;;;;;;;;41.10;30.70;;;;;;5080605;28;19921;-77
2021/09/16 09:53:13;;;;;;;;;;;40.70;30.00;;;;;;5053323;28;20390;-79
2021/09/16 09:55:41;;;;;;;;;;;40.80;30.60;;;;;;5074089;28;19909;-79
2021/09/16 09:58:07;;;;;;;;;;;41.00;29.10;;;;;;5075033;28;20058;-78
2021/09/16 10:00:33;;;;;;;;;;;41.50;29.10;;;;;;5074477;28;20019;-80
2021/09/16 10:03:00;;;;;;;;;;;41.80;28.70;;;;;;5079870;28;19923;-79
2021/09/16 10:05:30;;;;;;;;;;;42.10;29.90;;;;;;5080398;28;19909;-78
2021/09/16 10:07:56;;;;;;;;;;;42.10;29.40;;;;;;5074906;28;19962;-78
2021/09/16 10:10:22;;;;;;;;;;;42.20;29.20;;;;;;5073879;28;19919;-79
2021/09/16 10:12:51;;;;;;;;;;;41.90;29.80;;;;;;5072909;28;19912;-79
2021/09/16 10:15:17;;;;;;;;;;;41.80;29.90;;;;;;5077099;28;19948;-79
2021/09/16 10:17:44;;;;;;;;;;;42.00;29.30;;;;;;5073775;28;19958;-79
2021/09/16 10:20:13;;;;;;;;;;;41.90;29.10;;;;;;5072938;28;19908;-78
2021/09/16 10:22:39;;;;;;;;;;;41.90;28.30;;;;;;5069929;28;19915;-78
2021/09/16 10:25:06;;;;;;;;;;;42.20;29.00;;;;;;5071177;28;20310;-77
2021/09/16 10:27:42;;;;;;;;;;;42.50;29.40;;;;;;5077506;28;19999;-78
2021/09/16 10:30:23;;;;;;;;;;;42.60;27.50;;;;;;5077806;28;20427;-79
2021/09/16 10:33:07;;;;;;;;;;;43.00;28.60;;;;;;5077499;28;19923;-82
2021/09/16 10:35:34;;;;;;;;;;;42.80;29.10;;;;;;5082652;28;19968;-80
2021/09/16 10:38:20;;;;;;;;;;;42.80;28.70;;;;;;5077587;28;19970;-80
2021/09/16 10:40:46;;;;;;;;;;;43.00;28.60;;;;;;5078824;28;19942;-79
2021/09/16 10:43:19;;;;;;;;;;;42.90;29.00;;;;;;5082178;28;19922;-81
2021/09/16 10:45:45;;;;;;;;;;;42.70;27.70;;;;;;5083228;28;19909;-80
2021/09/16 10:50:56;;;;;;;;;;;42.80;27.90;;;;;;5085006;28;19951;-74
2021/09/16 10:53:36;;;;;;;;;;;43.30;27.50;;;;;;5089144;28;19957;-73
2021/09/16 10:56:05;;;;;;;;;;;44.00;27.80;;;;;;5088935;28;19912;-74
2021/09/16 10:58:32;;;;;;;;;;;44.30;27.60;;;;;;5088963;28;19924;-73
2021/09/16 11:00:58;;;;;;;;;;;44.20;27.60;;;;;;5085943;28;20442;-73
2021/09/16 11:03:24;;;;;;;;;;;44.40;27.50;;;;;;5089546;28;19916;-75
2021/09/16 11:05:55;;;;;;;;;;;44.90;27.60;;;;;;5090768;28;19978;-73
2021/09/16 11:08:21;;;;;;;;;;;45.20;27.30;;;;;;5091689;28;19916;-73
2021/09/16 11:10:48;;;;;;;;;;;45.30;27.50;;;;;;5094238;28;19966;-73
2021/09/16 11:13:33;;;;;;;;;;;45.10;26.80;;;;;;5092066;28;19931;-74
2021/09/16 11:16:00;;;;;;;;;;;44.90;27.50;;;;;;5089352;28;19912;-73
2021/09/16 11:18:26;;;;;;;;;;;44.50;28.10;;;;;;5090126;28;19943;-73
2021/09/16 11:20:59;;;;;;;;;;;44.60;27.70;;;;;;5088867;28;19973;-73
2021/09/16 11:23:37;;;;;;;;;;;44.60;27.10;;;;;;5087531;28;19913;-73
2021/09/16 11:26:03;;;;;;;;;;;44.40;27.50;;;;;;5088081;28;19965;-73
2021/09/16 11:28:29;;;;;;;;;;;44.40;27.50;;;;;;5088497;28;20408;-74
2021/09/16 11:30:54;;;;;;;;;;;44.30;27.10;;;;;;5090770;28;19927;-74
2021/09/16 11:33:20;;;;;;;;;;;44.20;28.00;;;;;;5090002;28;19974;-74
2021/09/16 11:35:47;;;;;;;;;;;43.90;26.90;;;;;;5089175;28;19970;-74
2021/09/16 11:38:14;;;;;;;;;;;43.70;27.00;;;;;;5088192;28;19942;-74
2021/09/16 11:40:44;;;;;;;;;;;43.50;27.60;;;;;;5088963;28;19985;-74
2021/09/16 11:43:11;;;;;;;;;;;43.00;27.70;;;;;;5086997;28;19912;-74
2021/09/16 11:45:39;;;;;;;;;;;42.80;28.00;;;;;;5085958;28;19965;-75
2021/09/16 11:48:07;;;;;;;;;;;43.10;27.70;;;;;;5091034;28;19968;-75
2021/09/16 11:50:40;;;;;;;;;;;43.40;27.90;;;;;;5090801;28;19954;-75
2021/09/16 11:53:22;;;;;;;;;;;43.30;27.10;;;;;;5088203;28;20268;-75
2021/09/16 11:55:49;;;;;;;;;;;43.30;27.30;;;;;;5089113;28;20440;-75
2021/09/16 11:58:22;;;;;;;;;;;43.20;27.70;;;;;;5087709;28;19924;-75
2021/09/16 12:00:52;;;;;;;;;;;43.20;27.50;;;;;;5085981;28;19912;-75
2021/09/16 12:03:28;;;;;;;;;;;43.30;27.90;;;;;;5087606;28;20203;-75
2021/09/16 12:06:01;;;;;;;;;;;43.30;27.70;;;;;;5088443;28;19908;-74
2021/09/16 12:08:28;;;;;;;;;;;43.40;27.00;;;;;;5088290;28;20015;-75
2021/09/16 12:10:56;;;;;;;;;;;43.20;27.60;;;;;;5086754;28;19918;-74
2021/09/16 12:13:23;;;;;;;;;;;42.60;27.10;;;;;;5086283;28;20679;-74
2021/09/16 12:15:50;;;;;;;;;;;42.20;27.40;;;;;;5086349;28;19908;-76
2021/09/16 12:18:42;;;;;;;;;;;42.10;27.20;;;;;;5102477;27;19912;-74
2021/09/16 12:21:08;;;;;;;;;;;42.00;27.30;;;;;;5104640;28;19912;-73
2021/09/16 12:23:34;;;;;;;;;;;42.10;27.70;;;;;;5105031;28;20161;-73
2021/09/16 12:26:01;;;;;;;;;;;41.50;27.50;;;;;;5105354;28;20376;-73
2021/09/16 12:28:28;;;;;;;;;;;41.20;27.70;;;;;;5106033;28;19920;-73
2021/09/16 12:30:54;;;;;;;;;;;40.80;27.50;;;;;;5106634;28;19915;-73
2021/09/16 12:33:29;;;;;;;;;;;40.30;27.70;;;;;;5106602;28;19912;-74
2021/09/16 12:36:13;;;;;;;;;;;40.00;27.70;;;;;;5105020;28;20161;-74
2021/09/16 12:38:43;;;;;;;;;;;39.80;27.60;;;;;;5106715;28;20014;-72
2021/09/16 12:41:28;;;;;;;;;;;39.60;28.00;;;;;;5105245;28;19912;-72
2021/09/16 12:43:54;;;;;;;;;;;39.90;28.10;;;;;;5103225;28;19920;-73
2021/09/16 12:46:20;;;;;;;;;;;40.20;28.10;;;;;;5104862;28;19912;-73
2021/09/16 12:51:15;;;;;;;;;;;40.80;28.00;;;;;;5050122;28;20141;-79
2021/09/16 12:53:42;;;;;;;;;;;41.10;27.80;;;;;;5052778;28;19992;-80
2021/09/16 12:56:08;;;;;;;;;;;41.20;28.20;;;;;;5051737;28;19909;-79
2021/09/16 12:58:34;;;;;;;;;;;41.30;27.70;;;;;;5052604;28;19992;-81
2021/09/16 13:01:03;;;;;;;;;;;41.10;27.40;;;;;;5051075;28;19948;-80
2021/09/16 13:03:28;;;;;;;;;;;40.90;27.40;;;;;;5049886;28;19944;-79
2021/09/16 13:06:12;;;;;;;;;;;40.50;27.50;;;;;;5052763;28;19972;-80
2021/09/16 13:08:44;;;;;;;;;;;39.80;27.50;;;;;;5050775;28;20247;-80
2021/09/16 13:11:23;;;;;;;;;;;39.40;27.70;;;;;;5047439;28;19915;-78
2021/09/16 13:14:07;;;;;;;;;;;39.60;27.70;;;;;;5053066;28;19963;-80
2021/09/16 13:16:32;;;;;;;;;;;39.90;27.80;;;;;;5053404;28;19919;-80
2021/09/16 13:18:59;;;;;;;;;;;39.90;27.70;;;;;;5052678;28;19984;-80
2021/09/16 13:21:24;;;;;;;;;;;39.50;27.80;;;;;;5055108;28;19996;-80
2021/09/16 13:23:50;;;;;;;;;;;39.60;27.90;;;;;;5052200;28;19952;-80
2021/09/16 13:26:15;;;;;;;;;;;39.90;27.70;;;;;;5052961;28;20065;-80
2021/09/16 13:28:41;;;;;;;;;;;40.00;27.40;;;;;;5047442;28;20010;-80
2021/09/16 13:31:06;;;;;;;;;;;39.60;27.60;;;;;;5038528;28;20409;-80
2021/09/16 13:33:32;;;;;;;;;;;39.60;27.40;;;;;;5037779;28;19918;-80
2021/09/16 13:35:58;;;;;;;;;;;39.70;27.50;;;;;;5038540;28;19917;-80
2021/09/16 13:38:24;;;;;;;;;;;39.90;27.40;;;;;;5041894;28;19917;-79
2021/09/16 13:40:49;;;;;;;;;;;40.10;27.80;;;;;;5040830;28;19948;-79
2021/09/16 13:43:16;;;;;;;;;;;40.30;27.50;;;;;;5041608;28;20416;-79
2021/09/16 13:45:42;;;;;;;;;;;40.50;27.50;;;;;;5041297;28;19916;-79
2021/09/16 13:48:07;;;;;;;;;;;40.50;27.50;;;;;;5040941;28;19940;-80
2021/09/16 13:50:34;;;;;;;;;;;40.50;27.30;;;;;;5040094;28;19924;-81
2021/09/16 13:52:59;;;;;;;;;;;40.50;27.20;;;;;;5039836;28;19909;-80
2021/09/16 13:55:25;;;;;;;;;;;40.40;27.20;;;;;;5042128;28;19939;-81
2021/09/16 13:57:51;;;;;;;;;;;40.10;27.30;;;;;;5038309;28;20267;-81
2021/09/16 14:00:16;;;;;;;;;;;39.80;27.30;;;;;;5039135;28;20366;-81
2021/09/16 14:02:42;;;;;;;;;;;39.40;27.30;;;;;;5040262;28;20367;-81
2021/09/16 14:05:08;;;;;;;;;;;38.70;27.40;;;;;;5040178;28;19917;-81
2021/09/16 14:07:33;;;;;;;;;;;38.10;27.70;;;;;;5039209;28;20374;-79
2021/09/16 14:09:59;;;;;;;;;;;37.80;27.80;;;;;;5038756;28;19920;-80
2021/09/16 14:12:24;;;;;;;;;;;37.40;28.10;;;;;;5037113;28;19913;-79
2021/09/16 14:14:50;;;;;;;;;;;37.30;28.10;;;;;;5033604;28;19913;-78
2021/09/16 14:17:16;;;;;;;;;;;37.20;28.20;;;;;;5032094;28;20290;-78
2021/09/16 14:19:41;;;;;;;;;;;37.10;28.20;;;;;;5032684;28;20326;-79
2021/09/16 14:22:07;;;;;;;;;;;37.20;28.00;;;;;;5049330;28;20294;-79